createdAt,value
2022-11-18T00:01:40.787Z,14.77
2022-11-18T00:04:07.950Z,13.30
2022-11-18T00:06:35.117Z,13.30
2022-11-18T00:09:02.264Z,13.10
2022-11-18T00:11:48.008Z,14.10
2022-11-18T00:14:19.686Z,12.70
2022-11-18T00:16:49.919Z,13.60
2022-11-18T00:19:17.279Z,15.18
2022-11-18T00:21:44.577Z,13.60
2022-11-18T00:24:11.796Z,16.10
2022-11-18T00:26:39.016Z,13.48
2022-11-18T00:29:06.191Z,15.18
2022-11-18T00:31:33.365Z,14.70
2022-11-18T00:34:00.511Z,13.05
2022-11-18T00:36:27.648Z,12.90
2022-11-18T00:38:54.933Z,15.20
2022-11-18T00:41:22.145Z,14.90
2022-11-18T00:43:49.307Z,14.60
2022-11-18T00:46:16.710Z,18.15
2022-11-18T00:48:43.876Z,15.77
2022-11-18T00:51:20.028Z,15.63
2022-11-18T00:53:47.532Z,13.60
2022-11-18T00:56:14.640Z,17.20
2022-11-18T00:58:41.822Z,15.77
2022-11-18T01:01:08.967Z,17.65
2022-11-18T01:03:36.088Z,14.02
2022-11-18T01:06:03.331Z,14.85
2022-11-18T01:08:30.471Z,14.57
2022-11-18T01:11:17.640Z,15.88
2022-11-18T01:13:44.821Z,15.18
2022-11-18T01:16:11.978Z,14.45
2022-11-18T01:18:39.133Z,15.50
2022-11-18T01:21:07.166Z,19.75
2022-11-18T01:23:34.327Z,15.25
2022-11-18T01:26:05.268Z,16.38
2022-11-18T01:28:32.461Z,16.25
2022-11-18T01:31:06.661Z,16.20
2022-11-18T01:33:34.021Z,14.70
2022-11-18T01:36:01.174Z,15.50
2022-11-18T01:38:28.799Z,15.63
2022-11-18T01:40:56.540Z,15.68
2022-11-18T01:43:24.618Z,14.98
2022-11-18T01:45:56.036Z,17.67
2022-11-18T01:48:23.164Z,18.02
2022-11-18T01:50:53.235Z,17.92
2022-11-18T01:53:26.310Z,15.63
2022-11-18T01:55:55.161Z,15.35
2022-11-18T01:58:31.465Z,17.98
2022-11-18T02:00:59.657Z,20.83
2022-11-18T02:03:27.735Z,15.18
2022-11-18T02:05:55.701Z,17.05
2022-11-18T02:08:23.250Z,14.90
2022-11-18T02:10:50.448Z,16.80
2022-11-18T02:13:18.540Z,15.70
2022-11-18T02:15:57.797Z,16.48
2022-11-18T02:18:40.308Z,15.23
2022-11-18T02:21:13.553Z,14.80
2022-11-18T02:23:49.803Z,16.35
2022-11-18T02:26:35.766Z,17.40
2022-11-18T02:29:10.785Z,17.88
2022-11-18T02:32:10.420Z,14.35
2022-11-18T02:34:41.475Z,17.02
2022-11-18T02:37:20.745Z,14.70
2022-11-18T02:40:08.694Z,18.20
2022-11-18T02:42:37.366Z,15.20
2022-11-18T02:45:07.675Z,16.33
2022-11-18T02:47:35.965Z,15.70
2022-11-18T02:50:05.395Z,14.57
2022-11-18T02:52:34.222Z,16.20
2022-11-18T02:55:02.369Z,14.07
2022-11-18T02:57:30.431Z,15.88
2022-11-18T02:59:57.666Z,15.80
2022-11-18T03:02:24.993Z,16.00
2022-11-18T03:04:53.975Z,15.52
2022-11-18T03:07:31.634Z,18.23
2022-11-18T03:09:59.869Z,14.80
2022-11-18T03:12:53.528Z,14.40
2022-11-18T03:15:43.748Z,17.88
2022-11-18T03:18:31.336Z,16.13
2022-11-18T03:21:01.605Z,14.90
2022-11-18T03:23:48.789Z,15.90
2022-11-18T03:26:24.056Z,14.65
2022-11-18T03:28:56.498Z,12.55
2022-11-18T03:31:26.804Z,15.45
2022-11-18T03:34:02.879Z,17.75
2022-11-18T03:36:33.355Z,15.32
2022-11-18T03:39:03.443Z,16.83
2022-11-18T03:41:32.043Z,15.15
2022-11-18T03:44:03.472Z,14.35
2022-11-18T03:46:34.969Z,17.15
2022-11-18T03:49:02.420Z,21.20
2022-11-18T03:51:34.604Z,15.30
2022-11-18T03:54:03.962Z,15.93
2022-11-18T03:56:33.341Z,16.05
2022-11-18T03:59:17.080Z,17.20
2022-11-18T04:01:55.754Z,15.38
2022-11-18T04:04:23.884Z,14.98
2022-11-18T04:06:53.787Z,15.20
2022-11-18T04:09:24.670Z,14.38
2022-11-18T04:12:04.059Z,15.20
2022-11-18T04:14:35.844Z,17.33
2022-11-18T04:17:06.773Z,13.20
2022-11-18T04:19:33.894Z,15.43
2022-11-18T04:22:01.179Z,14.40
2022-11-18T04:24:28.313Z,14.63
2022-11-18T04:26:55.520Z,14.68
2022-11-18T04:29:22.703Z,16.65
2022-11-18T04:31:49.811Z,13.20
2022-11-18T04:34:16.993Z,12.32
2022-11-18T04:36:44.259Z,14.05
2022-11-18T04:39:11.584Z,14.00
2022-11-18T04:41:57.161Z,12.73
2022-11-18T04:44:28.752Z,16.08
2022-11-18T04:46:57.534Z,12.82
2022-11-18T04:49:25.486Z,14.43
2022-11-18T04:51:52.989Z,15.55
2022-11-18T04:54:20.707Z,14.68
2022-11-18T04:56:49.617Z,15.30
2022-11-18T04:59:19.340Z,15.40
2022-11-18T05:01:46.605Z,14.60
2022-11-18T05:04:15.860Z,14.10
2022-11-18T05:06:42.850Z,15.70
2022-11-18T05:09:10.330Z,13.02
2022-11-18T05:11:56.127Z,14.13
2022-11-18T05:14:25.953Z,13.18
2022-11-18T05:16:53.330Z,12.98
2022-11-18T05:19:20.375Z,14.52
2022-11-18T05:21:47.391Z,12.25
2022-11-18T05:24:14.281Z,15.75
2022-11-18T05:26:41.061Z,13.68
2022-11-18T05:29:07.843Z,12.40
2022-11-18T05:31:34.671Z,12.07
2022-11-18T05:34:01.476Z,11.80
2022-11-18T05:36:28.292Z,12.48
2022-11-18T05:38:55.481Z,12.85
2022-11-18T05:41:41.486Z,13.95
2022-11-18T05:44:08.602Z,13.32
2022-11-18T05:46:35.725Z,15.13
2022-11-18T05:49:02.896Z,16.88
2022-11-18T05:51:30.089Z,13.93
2022-11-18T05:53:58.220Z,10.23
2022-11-18T05:56:25.473Z,10.75
2022-11-18T05:58:52.699Z,13.77
2022-11-18T06:01:24.167Z,13.50
2022-11-18T06:03:51.718Z,11.73
2022-11-18T06:06:21.037Z,14.88
2022-11-18T06:08:51.135Z,14.32
2022-11-18T06:11:20.029Z,21.15
2022-11-18T06:13:51.116Z,25.20
2022-11-18T06:16:21.545Z,23.20
2022-11-18T06:18:48.822Z,18.00
2022-11-18T06:21:16.006Z,20.38
2022-11-18T06:23:43.640Z,17.27
2022-11-18T06:26:12.224Z,22.52
2022-11-18T06:28:39.866Z,29.33
2022-11-18T06:31:07.084Z,26.17
2022-11-18T06:33:34.344Z,25.98
2022-11-18T06:36:01.478Z,29.23
2022-11-18T06:38:28.752Z,27.35
2022-11-18T06:40:59.437Z,26.77
2022-11-18T06:43:38.798Z,35.13
2022-11-18T06:46:25.590Z,32.63
2022-11-18T06:48:52.788Z,31.70
2022-11-18T06:51:19.986Z,30.58
2022-11-18T06:53:47.149Z,31.60
2022-11-18T06:56:15.350Z,25.63
2022-11-18T06:58:42.761Z,24.25
2022-11-18T07:01:17.610Z,22.20
2022-11-18T07:03:45.806Z,29.20
2022-11-18T07:06:14.277Z,22.67
2022-11-18T07:08:42.180Z,28.48
2022-11-18T07:11:10.971Z,27.13
2022-11-18T07:13:43.199Z,23.45
2022-11-18T07:16:12.593Z,23.38
2022-11-18T07:18:41.483Z,24.25
2022-11-18T07:21:10.058Z,23.67
2022-11-18T07:23:37.327Z,21.38
2022-11-18T07:26:05.132Z,19.75
2022-11-18T07:28:32.651Z,21.45
2022-11-18T07:31:07.135Z,25.55
2022-11-18T07:33:34.951Z,23.70
2022-11-18T07:36:02.975Z,26.23
2022-11-18T07:38:30.342Z,23.25
2022-11-18T07:41:05.017Z,25.77
2022-11-18T07:43:33.206Z,25.38
2022-11-18T07:46:00.371Z,25.58
2022-11-18T07:48:27.556Z,29.52
2022-11-18T07:50:54.812Z,25.73
2022-11-18T07:53:21.971Z,23.83
2022-11-18T07:55:49.136Z,25.80
2022-11-18T07:58:16.328Z,26.70
2022-11-18T08:00:43.446Z,29.05
2022-11-18T08:03:14.399Z,26.27
2022-11-18T08:05:41.877Z,30.65
2022-11-18T08:08:10.771Z,28.48
2022-11-18T08:10:38.227Z,22.30
2022-11-18T08:13:05.425Z,22.05
2022-11-18T08:15:32.593Z,23.50
2022-11-18T08:17:59.751Z,21.45
2022-11-18T08:20:27.933Z,27.27
2022-11-18T08:22:55.048Z,26.73
2022-11-18T08:25:22.171Z,28.02
2022-11-18T08:27:49.334Z,36.03
2022-11-18T08:30:16.443Z,38.90
2022-11-18T08:32:43.668Z,32.42
2022-11-18T08:35:11.521Z,31.35
2022-11-18T08:37:38.949Z,33.67
2022-11-18T08:40:06.372Z,24.77
2022-11-18T08:42:34.591Z,24.90
2022-11-18T08:45:01.927Z,22.35
2022-11-18T08:47:29.129Z,24.95
2022-11-18T08:49:56.316Z,23.52
2022-11-18T08:52:23.437Z,21.63
2022-11-18T08:54:50.634Z,20.92
2022-11-18T08:57:19.192Z,28.52
2022-11-18T08:59:46.305Z,28.02
2022-11-18T09:02:17.199Z,29.17
2022-11-18T09:04:44.421Z,21.95
2022-11-18T09:07:11.644Z,24.10
2022-11-18T09:09:38.825Z,23.83
2022-11-18T09:12:06.151Z,25.65
2022-11-18T09:15:12.347Z,23.35
2022-11-18T09:17:20.470Z,28.08
2022-11-18T09:19:48.396Z,25.40
2022-11-18T09:22:15.720Z,19.95
2022-11-18T09:24:43.640Z,19.33
2022-11-18T09:27:16.354Z,24.42
2022-11-18T09:29:44.440Z,21.42
2022-11-18T09:32:11.592Z,26.17
2022-11-18T09:34:38.741Z,21.95
2022-11-18T09:37:06.919Z,24.13
2022-11-18T09:39:37.582Z,24.55
2022-11-18T09:42:15.781Z,22.38
2022-11-18T09:44:53.300Z,21.85
2022-11-18T09:47:30.818Z,22.83
2022-11-18T09:50:14.818Z,21.15
2022-11-18T09:53:05.138Z,17.75
2022-11-18T09:55:32.530Z,19.10
2022-11-18T09:58:00.127Z,18.65
2022-11-18T10:00:30.230Z,24.13
2022-11-18T10:03:10.091Z,23.67
2022-11-18T10:05:43.338Z,22.05
2022-11-18T10:08:22.301Z,21.83
2022-11-18T10:10:49.485Z,19.75
2022-11-18T10:13:27.604Z,24.15
2022-11-18T10:16:01.114Z,23.08
2022-11-18T10:18:59.690Z,24.10
2022-11-18T10:21:46.502Z,25.20
2022-11-18T10:24:19.975Z,21.85
2022-11-18T10:26:47.742Z,24.55
2022-11-18T10:29:14.898Z,24.52
2022-11-18T10:32:04.335Z,25.50
2022-11-18T10:34:32.393Z,23.27
2022-11-18T10:37:06.869Z,21.70
2022-11-18T10:39:34.132Z,19.80
2022-11-18T10:42:06.241Z,27.15
2022-11-18T10:44:38.004Z,25.95
2022-11-18T10:47:17.139Z,20.25
2022-11-18T10:49:44.427Z,25.13
2022-11-18T10:52:13.023Z,19.02
2022-11-18T10:54:40.668Z,17.42
2022-11-18T10:57:14.710Z,18.23
2022-11-18T10:59:52.947Z,19.40
2022-11-18T11:02:39.968Z,19.90
2022-11-18T11:05:23.596Z,22.85
2022-11-18T11:08:29.455Z,16.40
2022-11-18T11:10:55.430Z,20.23
2022-11-18T11:13:23.257Z,18.52
2022-11-18T11:15:53.064Z,24.00
2022-11-18T11:18:42.906Z,24.52
2022-11-18T11:21:12.557Z,20.40
2022-11-18T11:23:39.962Z,19.48
2022-11-18T11:29:31.561Z,15.55
2022-11-18T11:32:17.290Z,20.23
2022-11-18T11:34:47.637Z,18.00
2022-11-18T11:37:21.058Z,22.73
2022-11-18T11:39:51.285Z,22.55
2022-11-18T11:42:33.771Z,27.92
2022-11-18T11:45:06.774Z,21.88
2022-11-18T11:47:56.938Z,19.45
2022-11-18T11:51:03.387Z,24.30
2022-11-18T11:53:50.568Z,24.40
2022-11-18T11:56:22.384Z,26.98
2022-11-18T11:59:08.941Z,23.10
2022-11-18T12:01:54.762Z,20.45
2022-11-18T12:04:21.918Z,21.25
2022-11-18T12:06:51.868Z,21.77
2022-11-18T12:09:22.193Z,21.88
2022-11-18T12:12:29.503Z,26.00
2022-11-18T12:15:00.817Z,25.52
2022-11-18T12:19:55.018Z,21.83
2022-11-18T12:22:23.175Z,19.67
2022-11-18T12:24:50.316Z,22.30
2022-11-18T12:27:30.398Z,20.25
2022-11-18T12:30:01.612Z,20.65
2022-11-18T12:32:47.029Z,18.95
2022-11-18T12:35:14.216Z,20.60
2022-11-18T12:37:53.614Z,38.10
2022-11-18T12:40:40.679Z,32.67
2022-11-18T12:43:32.574Z,24.65
2022-11-18T12:45:59.776Z,26.85
2022-11-18T12:48:34.669Z,26.73
2022-11-18T12:51:01.881Z,20.85
2022-11-18T12:53:45.961Z,23.58
2022-11-18T12:56:13.164Z,22.95
2022-11-18T12:58:45.259Z,24.35
2022-11-18T13:01:13.361Z,26.83
2022-11-18T13:03:40.626Z,22.50
2022-11-18T13:06:13.706Z,26.45
2022-11-18T13:08:41.328Z,24.85
2022-11-18T13:11:27.157Z,28.58
2022-11-18T13:14:14.589Z,23.30
2022-11-18T13:17:01.270Z,20.90
2022-11-18T13:19:28.391Z,28.95
2022-11-18T13:22:15.726Z,24.98
2022-11-18T13:24:49.877Z,26.40
2022-11-18T13:27:29.187Z,25.42
2022-11-18T13:30:03.952Z,30.52
2022-11-18T13:32:31.173Z,26.13
2022-11-18T13:35:18.545Z,26.48
2022-11-18T13:37:50.736Z,26.88
2022-11-18T13:40:25.494Z,24.55
2022-11-18T13:42:52.758Z,24.90
2022-11-18T13:45:20.423Z,25.15
2022-11-18T13:47:55.504Z,26.25
2022-11-18T13:50:29.370Z,24.60
2022-11-18T13:52:59.412Z,23.73
2022-11-18T13:55:28.924Z,28.85
2022-11-18T13:58:23.694Z,25.75
2022-11-18T14:00:58.188Z,26.90
2022-11-18T14:03:27.607Z,30.77
2022-11-18T14:05:55.482Z,29.13
2022-11-18T14:08:33.094Z,26.90
2022-11-18T14:11:00.344Z,31.27
2022-11-18T14:13:27.471Z,29.80
2022-11-18T14:15:59.606Z,26.50
2022-11-18T14:18:34.264Z,29.42
2022-11-18T14:21:02.489Z,26.95
2022-11-18T14:23:31.072Z,30.17
2022-11-18T14:25:59.751Z,28.52
2022-11-18T14:28:28.379Z,33.28
2022-11-18T14:30:57.132Z,30.35
2022-11-18T14:33:24.667Z,27.23
2022-11-18T14:35:51.900Z,32.30
2022-11-18T14:38:40.650Z,33.92
2022-11-18T14:41:12.280Z,33.53
2022-11-18T14:43:39.525Z,33.30
2022-11-18T14:46:08.490Z,36.00
2022-11-18T14:48:35.733Z,31.35
2022-11-18T14:51:02.862Z,24.42
2022-11-18T14:53:30.022Z,29.02
2022-11-18T14:55:59.833Z,27.02
2022-11-18T14:58:26.956Z,33.38
2022-11-18T15:00:54.199Z,31.40
2022-11-18T15:03:21.509Z,33.35
2022-11-18T15:05:48.983Z,31.80
2022-11-18T15:08:16.706Z,37.30
2022-11-18T15:10:44.006Z,37.65
2022-11-18T15:13:11.130Z,43.70
2022-11-18T15:15:38.292Z,46.20
2022-11-18T15:18:05.515Z,45.58
2022-11-18T15:20:32.728Z,46.63
2022-11-18T15:22:59.891Z,38.30
2022-11-18T15:25:27.080Z,37.50
2022-11-18T15:27:54.252Z,40.20
2022-11-18T15:30:21.689Z,35.22
2022-11-18T15:32:48.874Z,37.75
2022-11-18T15:35:16.050Z,36.55
2022-11-18T15:37:43.211Z,32.67
2022-11-18T15:40:11.153Z,35.53
2022-11-18T15:42:47.480Z,31.95
2022-11-18T15:45:17.755Z,32.53
2022-11-18T15:47:44.869Z,32.47
2022-11-18T15:50:12.808Z,30.33
2022-11-18T15:52:40.005Z,30.67
2022-11-18T15:55:08.271Z,26.70
2022-11-18T15:57:35.629Z,24.73
2022-11-18T16:00:02.894Z,25.55
2022-11-18T16:02:31.277Z,26.67
2022-11-18T16:04:58.416Z,27.20
2022-11-18T16:07:25.717Z,27.85
2022-11-18T16:10:11.579Z,24.48
2022-11-18T16:12:47.987Z,31.27
2022-11-18T16:15:34.057Z,28.58
2022-11-18T16:18:01.673Z,31.17
2022-11-18T16:20:29.078Z,33.92
2022-11-18T16:22:57.332Z,27.88
2022-11-18T16:25:24.720Z,27.40
2022-11-18T16:27:51.977Z,31.27
2022-11-18T16:30:38.112Z,30.73
2022-11-18T16:33:05.568Z,31.30
2022-11-18T16:35:32.715Z,31.30
2022-11-18T16:37:59.871Z,32.05
2022-11-18T16:40:28.563Z,30.75
2022-11-18T16:42:55.838Z,33.13
2022-11-18T16:45:23.099Z,31.35
2022-11-18T16:47:50.235Z,32.50
2022-11-18T16:50:17.532Z,34.88
2022-11-18T16:52:44.765Z,35.42
2022-11-18T16:55:11.916Z,33.83
2022-11-18T16:57:39.064Z,33.88
2022-11-18T17:00:06.548Z,31.80
2022-11-18T17:02:33.716Z,35.40
2022-11-18T17:05:00.906Z,37.38
2022-11-18T17:07:28.161Z,35.00
2022-11-18T17:09:55.355Z,37.55
2022-11-18T17:12:22.455Z,40.17
2022-11-18T17:14:49.634Z,36.25
2022-11-18T17:17:16.756Z,36.63
2022-11-18T17:19:43.928Z,37.03
2022-11-18T17:22:11.208Z,40.35
2022-11-18T17:24:38.331Z,39.25
2022-11-18T17:27:05.508Z,37.55
2022-11-18T17:29:33.058Z,39.15
2022-11-18T17:32:01.243Z,35.47
2022-11-18T17:34:28.437Z,36.75
2022-11-18T17:36:55.604Z,37.50
2022-11-18T17:39:22.717Z,36.10
2022-11-18T17:42:08.421Z,34.67
2022-11-18T17:44:35.603Z,34.53
2022-11-18T17:47:02.856Z,41.35
2022-11-18T17:49:30.069Z,37.00
2022-11-18T17:51:57.230Z,31.38
2022-11-18T17:54:24.372Z,37.22
2022-11-18T17:56:54.720Z,36.30
2022-11-18T17:59:22.950Z,39.97
2022-11-18T18:01:54.430Z,154.02
2022-11-18T18:04:26.011Z,36.25
2022-11-18T18:06:53.303Z,38.28
2022-11-18T18:09:28.480Z,37.80
2022-11-18T18:11:57.606Z,37.70
2022-11-18T18:14:24.740Z,42.42
2022-11-18T18:16:51.909Z,41.70
2022-11-18T18:19:20.560Z,33.50
2022-11-18T18:21:48.007Z,36.05
2022-11-18T18:24:17.243Z,44.88
2022-11-18T18:26:44.833Z,40.85
2022-11-18T18:29:12.420Z,41.70
2022-11-18T18:31:39.602Z,33.65
2022-11-18T18:34:06.873Z,35.78
2022-11-18T18:36:34.043Z,33.25
2022-11-18T18:39:02.281Z,32.00
2022-11-18T18:41:29.721Z,35.80
2022-11-18T18:43:56.916Z,30.58
2022-11-18T18:46:33.663Z,31.73
2022-11-18T18:49:02.921Z,34.40
2022-11-18T18:51:31.356Z,35.10
2022-11-18T18:53:59.442Z,33.03
2022-11-18T18:56:27.375Z,34.65
2022-11-18T18:58:54.987Z,30.23
2022-11-18T19:01:22.308Z,31.73
2022-11-18T19:03:54.297Z,29.58
2022-11-18T19:09:11.378Z,27.73
2022-11-18T19:11:57.720Z,27.05
2022-11-18T19:14:25.390Z,28.25
2022-11-18T19:16:53.249Z,27.70
2022-11-18T19:19:43.635Z,29.77
2022-11-18T19:22:11.599Z,28.95
2022-11-18T19:24:54.587Z,35.58
2022-11-18T19:27:22.488Z,24.95
2022-11-18T19:29:49.653Z,27.05
2022-11-18T19:32:16.790Z,30.38
2022-11-18T19:34:44.194Z,32.60
2022-11-18T19:37:11.304Z,31.20
2022-11-18T19:39:39.093Z,38.28
2022-11-18T19:42:06.417Z,36.47
2022-11-18T19:44:33.797Z,45.47
2022-11-18T19:47:00.960Z,44.53
2022-11-18T19:49:28.160Z,38.80
2022-11-18T19:51:55.278Z,40.20
2022-11-18T19:54:22.480Z,50.75
2022-11-18T19:56:49.681Z,41.38
2022-11-18T19:59:17.224Z,43.97
2022-11-18T20:01:44.629Z,40.75
2022-11-18T20:04:11.889Z,44.92
2022-11-18T20:06:40.097Z,43.35
2022-11-18T20:09:07.941Z,43.78
2022-11-18T20:11:35.266Z,43.20
2022-11-18T20:14:02.479Z,50.80
2022-11-18T20:16:29.623Z,47.27
2022-11-18T20:19:03.889Z,41.50
2022-11-18T20:21:34.234Z,45.40
2022-11-18T20:24:02.758Z,48.10
2022-11-18T20:26:31.828Z,46.45
2022-11-18T20:28:58.956Z,49.08
2022-11-18T20:31:26.471Z,42.50
2022-11-18T20:33:54.529Z,46.25
2022-11-18T20:36:31.992Z,43.13
2022-11-18T20:39:00.781Z,54.25
2022-11-18T20:41:30.446Z,50.40
2022-11-18T20:43:57.826Z,46.88
2022-11-18T20:46:25.362Z,56.05
2022-11-18T20:48:52.568Z,44.15
2022-11-18T20:51:21.156Z,50.88
2022-11-18T20:53:48.389Z,51.33
2022-11-18T20:56:16.936Z,48.47
2022-11-18T20:58:44.703Z,46.10
2022-11-18T21:01:12.906Z,49.72
2022-11-18T21:03:40.763Z,48.88
2022-11-18T21:06:14.742Z,52.35
2022-11-18T21:08:42.808Z,48.60
2022-11-18T21:11:11.573Z,41.67
2022-11-18T21:13:57.729Z,56.88
2022-11-18T21:16:25.295Z,54.15
2022-11-18T21:18:52.494Z,54.85
2022-11-18T21:21:38.307Z,48.85
2022-11-18T21:24:05.613Z,39.08
2022-11-18T21:26:33.349Z,45.40
2022-11-18T21:29:01.454Z,46.50
2022-11-18T21:31:29.091Z,42.35
2022-11-18T21:33:56.982Z,40.65
2022-11-18T21:36:24.728Z,43.13
2022-11-18T21:38:52.288Z,39.42
2022-11-18T21:41:19.663Z,36.55
2022-11-18T21:46:34.891Z,34.45
2022-11-18T21:49:02.600Z,34.38
2022-11-18T21:51:32.029Z,37.42
2022-11-18T21:53:59.487Z,38.92
2022-11-18T21:56:31.278Z,35.60
2022-11-18T21:58:59.966Z,40.35
2022-11-18T22:01:28.317Z,31.88
2022-11-18T22:03:56.601Z,38.25
2022-11-18T22:06:24.702Z,37.72
2022-11-18T22:08:52.555Z,41.83
2022-11-18T22:11:24.196Z,37.67
2022-11-18T22:13:52.579Z,41.50
2022-11-18T22:16:20.930Z,40.67
2022-11-18T22:18:54.769Z,36.25
2022-11-18T22:21:26.241Z,41.08
2022-11-18T22:23:53.675Z,41.92
2022-11-18T22:26:21.776Z,37.97
2022-11-18T22:28:53.312Z,40.75
2022-11-18T22:31:21.177Z,42.05
2022-11-18T22:33:51.869Z,35.63
2022-11-18T22:36:19.992Z,41.83
2022-11-18T22:38:47.281Z,36.92
2022-11-18T22:41:34.021Z,36.53
2022-11-18T22:44:06.998Z,33.83
2022-11-18T22:46:34.604Z,39.28
2022-11-18T22:49:01.766Z,35.42
2022-11-18T22:51:29.202Z,36.28
2022-11-18T22:54:23.001Z,37.58
2022-11-18T22:56:48.338Z,41.40
2022-11-18T22:59:15.452Z,32.00
2022-11-18T23:01:42.653Z,31.92
2022-11-18T23:04:09.881Z,37.55
2022-11-18T23:06:37.004Z,29.73
2022-11-18T23:09:04.176Z,31.23
2022-11-18T23:11:50.374Z,29.25
2022-11-18T23:14:17.521Z,28.15
2022-11-18T23:16:44.844Z,35.17
2022-11-18T23:19:13.558Z,32.67
2022-11-18T23:21:41.134Z,30.40
2022-11-18T23:24:11.095Z,40.75
2022-11-18T23:26:38.363Z,32.00
2022-11-18T23:29:05.606Z,36.88
2022-11-18T23:31:32.995Z,33.30
2022-11-18T23:34:00.738Z,33.60
2022-11-18T23:36:28.061Z,37.72
2022-11-18T23:38:55.369Z,33.95
2022-11-18T23:41:22.748Z,33.40
2022-11-18T23:43:51.980Z,33.72
2022-11-18T23:46:19.901Z,33.85
2022-11-18T23:48:47.849Z,33.28
2022-11-18T23:51:16.412Z,24.42
2022-11-18T23:53:43.953Z,28.42
2022-11-18T23:56:12.352Z,34.90
2022-11-18T23:58:40.360Z,28.42
